sensor_id;sensor_type;location;lat;lon;timestamp;temperature;humidity
9919;DHT22;4998;51.024;13.828;2024-02-23T00:00:59;15.40;77.60
9919;DHT22;4998;51.024;13.828;2024-02-23T00:03:26;15.50;77.70
9919;DHT22;4998;51.024;13.828;2024-02-23T00:05:53;15.50;77.70
9919;DHT22;4998;51.024;13.828;2024-02-23T00:08:20;15.50;77.70
9919;DHT22;4998;51.024;13.828;2024-02-23T00:10:49;15.50;77.70
9919;DHT22;4998;51.024;13.828;2024-02-23T00:13:16;15.50;77.60
9919;DHT22;4998;51.024;13.828;2024-02-23T00:15:43;15.50;77.50
9919;DHT22;4998;51.024;13.828;2024-02-23T00:18:10;15.50;77.50
9919;DHT22;4998;51.024;13.828;2024-02-23T00:20:38;15.60;77.60
9919;DHT22;4998;51.024;13.828;2024-02-23T00:23:05;15.60;77.50
9919;DHT22;4998;51.024;13.828;2024-02-23T00:25:32;15.60;77.40
9919;DHT22;4998;51.024;13.828;2024-02-23T00:28:01;15.60;77.50
9919;DHT22;4998;51.024;13.828;2024-02-23T00:30:28;15.60;77.50
9919;DHT22;4998;51.024;13.828;2024-02-23T00:32:55;15.60;77.40
9919;DHT22;4998;51.024;13.828;2024-02-23T00:35:22;15.60;78.20
9919;DHT22;4998;51.024;13.828;2024-02-23T00:37:49;15.60;77.40
9919;DHT22;4998;51.024;13.828;2024-02-23T00:40:16;15.60;77.30
9919;DHT22;4998;51.024;13.828;2024-02-23T00:42:43;15.60;77.30
9919;DHT22;4998;51.024;13.828;2024-02-23T00:45:12;15.70;77.50
9919;DHT22;4998;51.024;13.828;2024-02-23T00:47:39;15.60;77.40
9919;DHT22;4998;51.024;13.828;2024-02-23T00:50:06;15.70;77.40
9919;DHT22;4998;51.024;13.828;2024-02-23T00:52:33;15.70;77.50
9919;DHT22;4998;51.024;13.828;2024-02-23T00:55:00;15.70;77.30
9919;DHT22;4998;51.024;13.828;2024-02-23T00:57:28;15.70;77.30
9919;DHT22;4998;51.024;13.828;2024-02-23T00:59:55;15.60;77.10
9919;DHT22;4998;51.024;13.828;2024-02-23T01:02:24;15.60;77.00
9919;DHT22;4998;51.024;13.828;2024-02-23T01:04:51;15.60;77.00
9919;DHT22;4998;51.024;13.828;2024-02-23T01:07:22;15.60;77.00
9919;DHT22;4998;51.024;13.828;2024-02-23T01:09:49;15.60;77.00
9919;DHT22;4998;51.024;13.828;2024-02-23T01:12:17;15.60;77.00
9919;DHT22;4998;51.024;13.828;2024-02-23T01:14:44;15.50;76.80
9919;DHT22;4998;51.024;13.828;2024-02-23T01:17:14;15.60;76.90
9919;DHT22;4998;51.024;13.828;2024-02-23T01:19:43;15.50;76.80
9919;DHT22;4998;51.024;13.828;2024-02-23T01:22:10;15.50;76.90
9919;DHT22;4998;51.024;13.828;2024-02-23T01:24:37;15.40;76.90
9919;DHT22;4998;51.024;13.828;2024-02-23T01:27:04;15.40;76.90
9919;DHT22;4998;51.024;13.828;2024-02-23T01:29:31;15.40;76.90
9919;DHT22;4998;51.024;13.828;2024-02-23T01:31:58;15.40;76.80
9919;DHT22;4998;51.024;13.828;2024-02-23T01:34:25;15.40;76.60
9919;DHT22;4998;51.024;13.828;2024-02-23T01:36:54;15.40;76.10
9919;DHT22;4998;51.024;13.828;2024-02-23T01:39:21;15.40;75.40
9919;DHT22;4998;51.024;13.828;2024-02-23T01:41:48;15.40;75.00
9919;DHT22;4998;51.024;13.828;2024-02-23T01:44:15;15.40;74.90
9919;DHT22;4998;51.024;13.828;2024-02-23T01:46:43;15.50;74.60
9919;DHT22;4998;51.024;13.828;2024-02-23T01:49:10;15.50;74.60
9919;DHT22;4998;51.024;13.828;2024-02-23T01:51:38;15.60;74.50
9919;DHT22;4998;51.024;13.828;2024-02-23T01:54:07;15.60;74.10
9919;DHT22;4998;51.024;13.828;2024-02-23T01:56:35;15.70;73.90
9919;DHT22;4998;51.024;13.828;2024-02-23T01:59:06;15.70;73.60
9919;DHT22;4998;51.024;13.828;2024-02-23T02:01:34;15.80;73.20
9919;DHT22;4998;51.024;13.828;2024-02-23T02:04:01;15.80;72.90
9919;DHT22;4998;51.024;13.828;2024-02-23T02:06:28;15.80;72.50
9919;DHT22;4998;51.024;13.828;2024-02-23T02:08:55;15.90;72.20
9919;DHT22;4998;51.024;13.828;2024-02-23T02:11:24;15.90;72.00
9919;DHT22;4998;51.024;13.828;2024-02-23T02:13:51;15.90;71.30
9919;DHT22;4998;51.024;13.828;2024-02-23T02:16:18;16.00;71.00
9919;DHT22;4998;51.024;13.828;2024-02-23T02:18:45;16.00;70.80
9919;DHT22;4998;51.024;13.828;2024-02-23T02:21:12;16.00;70.70
9919;DHT22;4998;51.024;13.828;2024-02-23T02:23:40;16.00;70.40
9919;DHT22;4998;51.024;13.828;2024-02-23T02:26:07;16.00;70.20
9919;DHT22;4998;51.024;13.828;2024-02-23T02:28:35;16.10;70.20
9919;DHT22;4998;51.024;13.828;2024-02-23T02:31:02;16.10;69.70
9919;DHT22;4998;51.024;13.828;2024-02-23T02:33:30;16.10;69.80
9919;DHT22;4998;51.024;13.828;2024-02-23T02:35:57;16.10;69.60
9919;DHT22;4998;51.024;13.828;2024-02-23T02:38:24;16.10;69.10
9919;DHT22;4998;51.024;13.828;2024-02-23T02:40:51;16.10;68.60
9919;DHT22;4998;51.024;13.828;2024-02-23T02:43:18;16.10;68.40
9919;DHT22;4998;51.024;13.828;2024-02-23T02:45:47;16.00;68.20
9919;DHT22;4998;51.024;13.828;2024-02-23T02:48:14;16.00;68.00
9919;DHT22;4998;51.024;13.828;2024-02-23T02:50:41;16.00;68.10
9919;DHT22;4998;51.024;13.828;2024-02-23T02:53:08;16.00;67.80
9919;DHT22;4998;51.024;13.828;2024-02-23T02:55:35;16.00;67.10
9919;DHT22;4998;51.024;13.828;2024-02-23T02:58:03;16.00;67.10
9919;DHT22;4998;51.024;13.828;2024-02-23T03:00:30;16.00;67.00
9919;DHT22;4998;51.024;13.828;2024-02-23T03:02:59;15.90;66.60
9919;DHT22;4998;51.024;13.828;2024-02-23T03:05:26;15.90;66.20
9919;DHT22;4998;51.024;13.828;2024-02-23T03:07:53;15.90;66.30
9919;DHT22;4998;51.024;13.828;2024-02-23T03:10:20;15.90;66.00
9919;DHT22;4998;51.024;13.828;2024-02-23T03:12:47;15.80;65.70
9919;DHT22;4998;51.024;13.828;2024-02-23T03:15:14;15.80;65.30
9919;DHT22;4998;51.024;13.828;2024-02-23T03:17:42;15.80;65.00
9919;DHT22;4998;51.024;13.828;2024-02-23T03:20:11;15.80;64.90
9919;DHT22;4998;51.024;13.828;2024-02-23T03:22:38;15.70;64.20
9919;DHT22;4998;51.024;13.828;2024-02-23T03:25:06;15.70;63.80
9919;DHT22;4998;51.024;13.828;2024-02-23T03:27:36;15.70;63.80
9919;DHT22;4998;51.024;13.828;2024-02-23T03:30:04;15.60;63.10
9919;DHT22;4998;51.024;13.828;2024-02-23T03:32:31;15.60;62.50
9919;DHT22;4998;51.024;13.828;2024-02-23T03:35:02;15.60;62.60
9919;DHT22;4998;51.024;13.828;2024-02-23T03:37:31;15.50;62.40
9919;DHT22;4998;51.024;13.828;2024-02-23T03:39:58;15.50;61.90
9919;DHT22;4998;51.024;13.828;2024-02-23T03:42:26;15.40;62.00
9919;DHT22;4998;51.024;13.828;2024-02-23T03:44:53;15.40;61.60
9919;DHT22;4998;51.024;13.828;2024-02-23T03:47:21;15.30;61.50
9919;DHT22;4998;51.024;13.828;2024-02-23T03:49:48;15.30;61.30
9919;DHT22;4998;51.024;13.828;2024-02-23T03:52:15;15.30;61.10
9919;DHT22;4998;51.024;13.828;2024-02-23T03:54:43;15.30;61.30
9919;DHT22;4998;51.024;13.828;2024-02-23T03:57:10;15.20;61.10
9919;DHT22;4998;51.024;13.828;2024-02-23T03:59:37;15.20;61.30
9919;DHT22;4998;51.024;13.828;2024-02-23T04:02:04;15.20;61.40
9919;DHT22;4998;51.024;13.828;2024-02-23T04:04:31;15.20;61.40
9919;DHT22;4998;51.024;13.828;2024-02-23T04:06:58;15.10;61.30
9919;DHT22;4998;51.024;13.828;2024-02-23T04:09:26;15.10;61.30
9919;DHT22;4998;51.024;13.828;2024-02-23T04:11:55;15.10;60.50
9919;DHT22;4998;51.024;13.828;2024-02-23T04:14:22;15.00;60.30
9919;DHT22;4998;51.024;13.828;2024-02-23T04:16:49;15.00;59.90
9919;DHT22;4998;51.024;13.828;2024-02-23T04:19:16;14.90;59.20
9919;DHT22;4998;51.024;13.828;2024-02-23T04:21:43;14.90;59.20
9919;DHT22;4998;51.024;13.828;2024-02-23T04:24:10;14.80;58.80
9919;DHT22;4998;51.024;13.828;2024-02-23T04:26:38;14.80;58.60
9919;DHT22;4998;51.024;13.828;2024-02-23T04:29:06;14.70;58.60
9919;DHT22;4998;51.024;13.828;2024-02-23T04:31:36;14.60;58.20
9919;DHT22;4998;51.024;13.828;2024-02-23T04:34:03;14.60;58.20
9919;DHT22;4998;51.024;13.828;2024-02-23T04:36:30;14.50;58.00
9919;DHT22;4998;51.024;13.828;2024-02-23T04:38:57;14.50;57.70
9919;DHT22;4998;51.024;13.828;2024-02-23T04:41:24;14.40;57.50
9919;DHT22;4998;51.024;13.828;2024-02-23T04:43:52;14.40;56.80
9919;DHT22;4998;51.024;13.828;2024-02-23T04:46:25;14.30;56.60
9919;DHT22;4998;51.024;13.828;2024-02-23T04:48:53;14.20;56.50
9919;DHT22;4998;51.024;13.828;2024-02-23T04:51:20;14.20;56.40
9919;DHT22;4998;51.024;13.828;2024-02-23T04:53:48;14.20;56.40
9919;DHT22;4998;51.024;13.828;2024-02-23T04:56:15;14.10;56.20
9919;DHT22;4998;51.024;13.828;2024-02-23T04:58:43;14.10;56.30
9919;DHT22;4998;51.024;13.828;2024-02-23T05:01:10;14.00;56.20
9919;DHT22;4998;51.024;13.828;2024-02-23T05:03:38;14.00;56.00
9919;DHT22;4998;51.024;13.828;2024-02-23T05:06:06;14.00;55.90
9919;DHT22;4998;51.024;13.828;2024-02-23T05:08:33;13.90;55.90
9919;DHT22;4998;51.024;13.828;2024-02-23T05:11:00;13.90;55.90
9919;DHT22;4998;51.024;13.828;2024-02-23T05:13:27;13.80;55.90
9919;DHT22;4998;51.024;13.828;2024-02-23T05:15:55;13.80;55.90
9919;DHT22;4998;51.024;13.828;2024-02-23T05:18:22;13.80;56.00
9919;DHT22;4998;51.024;13.828;2024-02-23T05:20:51;13.80;56.30
9919;DHT22;4998;51.024;13.828;2024-02-23T05:23:18;13.80;56.10
9919;DHT22;4998;51.024;13.828;2024-02-23T05:25:45;13.70;56.20
9919;DHT22;4998;51.024;13.828;2024-02-23T05:28:12;13.70;56.10
9919;DHT22;4998;51.024;13.828;2024-02-23T05:30:39;13.70;56.40
9919;DHT22;4998;51.024;13.828;2024-02-23T05:33:07;13.70;56.50
9919;DHT22;4998;51.024;13.828;2024-02-23T05:35:34;13.60;56.50
9919;DHT22;4998;51.024;13.828;2024-02-23T05:38:03;13.60;56.60
9919;DHT22;4998;51.024;13.828;2024-02-23T05:40:31;13.60;56.70
9919;DHT22;4998;51.024;13.828;2024-02-23T05:42:58;13.60;59.40
9919;DHT22;4998;51.024;13.828;2024-02-23T05:45:25;13.60;59.90
9919;DHT22;4998;51.024;13.828;2024-02-23T05:47:52;13.70;58.90
9919;DHT22;4998;51.024;13.828;2024-02-23T05:50:19;13.80;58.20
9919;DHT22;4998;51.024;13.828;2024-02-23T05:52:46;13.90;57.70
9919;DHT22;4998;51.024;13.828;2024-02-23T05:55:15;13.90;57.10
9919;DHT22;4998;51.024;13.828;2024-02-23T05:57:42;13.90;56.70
9919;DHT22;4998;51.024;13.828;2024-02-23T06:00:10;13.90;56.60
9919;DHT22;4998;51.024;13.828;2024-02-23T06:02:37;13.90;56.40
9919;DHT22;4998;51.024;13.828;2024-02-23T06:05:05;13.90;56.10
9919;DHT22;4998;51.024;13.828;2024-02-23T06:07:33;13.80;55.90
9919;DHT22;4998;51.024;13.828;2024-02-23T06:10:00;13.80;55.70
9919;DHT22;4998;51.024;13.828;2024-02-23T06:12:29;13.80;55.60
9919;DHT22;4998;51.024;13.828;2024-02-23T06:14:56;13.70;55.10
9919;DHT22;4998;51.024;13.828;2024-02-23T06:17:24;13.70;54.90
9919;DHT22;4998;51.024;13.828;2024-02-23T06:19:51;13.60;54.20
9919;DHT22;4998;51.024;13.828;2024-02-23T06:22:19;13.50;54.50
9919;DHT22;4998;51.024;13.828;2024-02-23T06:24:46;13.50;54.40
9919;DHT22;4998;51.024;13.828;2024-02-23T06:27:13;13.40;54.50
9919;DHT22;4998;51.024;13.828;2024-02-23T06:29:42;13.40;54.60
9919;DHT22;4998;51.024;13.828;2024-02-23T06:32:09;13.40;54.40
9919;DHT22;4998;51.024;13.828;2024-02-23T06:34:36;13.30;54.60
9919;DHT22;4998;51.024;13.828;2024-02-23T06:37:03;13.30;54.60
9919;DHT22;4998;51.024;13.828;2024-02-23T06:39:31;13.30;54.30
9919;DHT22;4998;51.024;13.828;2024-02-23T06:41:58;13.30;54.20
9919;DHT22;4998;51.024;13.828;2024-02-23T06:44:26;13.20;54.30
9919;DHT22;4998;51.024;13.828;2024-02-23T06:46:54;13.20;54.30
9919;DHT22;4998;51.024;13.828;2024-02-23T06:49:21;13.20;54.30
9919;DHT22;4998;51.024;13.828;2024-02-23T06:51:48;13.20;54.70
9919;DHT22;4998;51.024;13.828;2024-02-23T06:54:15;13.20;54.80
9919;DHT22;4998;51.024;13.828;2024-02-23T06:56:43;13.20;54.90
9919;DHT22;4998;51.024;13.828;2024-02-23T06:59:11;13.20;54.90
9919;DHT22;4998;51.024;13.828;2024-02-23T07:01:48;13.20;54.70
9919;DHT22;4998;51.024;13.828;2024-02-23T07:04:16;13.20;54.50
9919;DHT22;4998;51.024;13.828;2024-02-23T07:06:44;13.20;54.60
9919;DHT22;4998;51.024;13.828;2024-02-23T07:09:12;13.30;54.60
9919;DHT22;4998;51.024;13.828;2024-02-23T07:11:39;13.30;54.50
9919;DHT22;4998;51.024;13.828;2024-02-23T07:14:09;13.20;54.30
9919;DHT22;4998;51.024;13.828;2024-02-23T07:16:37;13.20;54.40
9919;DHT22;4998;51.024;13.828;2024-02-23T07:19:06;13.20;54.50
9919;DHT22;4998;51.024;13.828;2024-02-23T07:21:34;13.20;54.50
9919;DHT22;4998;51.024;13.828;2024-02-23T07:24:01;13.20;54.60
9919;DHT22;4998;51.024;13.828;2024-02-23T07:26:28;13.20;54.60
9919;DHT22;4998;51.024;13.828;2024-02-23T07:28:56;13.20;54.70
9919;DHT22;4998;51.024;13.828;2024-02-23T07:31:23;13.20;54.80
9919;DHT22;4998;51.024;13.828;2024-02-23T07:33:50;13.20;54.80
9919;DHT22;4998;51.024;13.828;2024-02-23T07:36:18;13.20;54.90
9919;DHT22;4998;51.024;13.828;2024-02-23T07:38:47;13.20;54.80
9919;DHT22;4998;51.024;13.828;2024-02-23T07:41:15;13.20;54.70
9919;DHT22;4998;51.024;13.828;2024-02-23T07:43:43;13.20;54.70
9919;DHT22;4998;51.024;13.828;2024-02-23T07:46:11;13.20;54.60
9919;DHT22;4998;51.024;13.828;2024-02-23T07:48:38;13.20;54.50
9919;DHT22;4998;51.024;13.828;2024-02-23T07:51:06;13.20;54.50
9919;DHT22;4998;51.024;13.828;2024-02-23T07:53:33;13.20;55.00
9919;DHT22;4998;51.024;13.828;2024-02-23T07:56:01;13.20;54.20
9919;DHT22;4998;51.024;13.828;2024-02-23T07:58:29;13.10;54.10
9919;DHT22;4998;51.024;13.828;2024-02-23T08:00:56;13.10;54.20
9919;DHT22;4998;51.024;13.828;2024-02-23T08:03:23;13.10;54.10
9919;DHT22;4998;51.024;13.828;2024-02-23T08:05:51;13.10;53.90
9919;DHT22;4998;51.024;13.828;2024-02-23T08:08:18;13.10;53.90
9919;DHT22;4998;51.024;13.828;2024-02-23T08:10:48;13.20;54.10
9919;DHT22;4998;51.024;13.828;2024-02-23T08:13:16;13.10;54.10
9919;DHT22;4998;51.024;13.828;2024-02-23T08:15:44;13.10;53.70
9919;DHT22;4998;51.024;13.828;2024-02-23T08:18:11;13.10;53.90
9919;DHT22;4998;51.024;13.828;2024-02-23T08:20:38;13.10;53.80
9919;DHT22;4998;51.024;13.828;2024-02-23T08:23:05;13.10;54.00
9919;DHT22;4998;51.024;13.828;2024-02-23T08:25:32;13.10;53.90
9919;DHT22;4998;51.024;13.828;2024-02-23T08:27:59;13.20;53.90
9919;DHT22;4998;51.024;13.828;2024-02-23T08:30:28;13.10;53.70
9919;DHT22;4998;51.024;13.828;2024-02-23T08:32:55;13.10;53.40
9919;DHT22;4998;51.024;13.828;2024-02-23T08:35:22;13.10;53.00
9919;DHT22;4998;51.024;13.828;2024-02-23T08:37:49;13.10;53.10
9919;DHT22;4998;51.024;13.828;2024-02-23T08:40:16;13.10;53.20
9919;DHT22;4998;51.024;13.828;2024-02-23T08:42:44;13.00;52.90
9919;DHT22;4998;51.024;13.828;2024-02-23T08:45:12;13.10;53.10
9919;DHT22;4998;51.024;13.828;2024-02-23T08:47:41;13.00;53.00
9919;DHT22;4998;51.024;13.828;2024-02-23T08:50:09;13.00;53.00
9919;DHT22;4998;51.024;13.828;2024-02-23T08:52:36;13.00;53.20
9919;DHT22;4998;51.024;13.828;2024-02-23T08:55:04;13.00;53.70
9919;DHT22;4998;51.024;13.828;2024-02-23T08:57:31;13.00;53.10
9919;DHT22;4998;51.024;13.828;2024-02-23T08:59:58;13.00;53.00
9919;DHT22;4998;51.024;13.828;2024-02-23T09:02:25;13.00;53.10
9919;DHT22;4998;51.024;13.828;2024-02-23T09:04:53;12.90;53.10
9919;DHT22;4998;51.024;13.828;2024-02-23T09:07:20;13.00;53.30
9919;DHT22;4998;51.024;13.828;2024-02-23T09:09:46;13.00;53.50
9919;DHT22;4998;51.024;13.828;2024-02-23T09:12:14;13.00;53.50
9919;DHT22;4998;51.024;13.828;2024-02-23T09:14:42;13.10;53.70
9919;DHT22;4998;51.024;13.828;2024-02-23T09:17:09;13.20;53.90
9919;DHT22;4998;51.024;13.828;2024-02-23T09:19:37;13.20;54.30
9919;DHT22;4998;51.024;13.828;2024-02-23T09:22:05;13.30;54.10
9919;DHT22;4998;51.024;13.828;2024-02-23T09:24:32;13.40;54.00
9919;DHT22;4998;51.024;13.828;2024-02-23T09:27:00;13.50;54.10
9919;DHT22;4998;51.024;13.828;2024-02-23T09:29:28;13.60;54.20
9919;DHT22;4998;51.024;13.828;2024-02-23T09:31:55;13.70;53.80
9919;DHT22;4998;51.024;13.828;2024-02-23T09:34:22;13.80;53.50
9919;DHT22;4998;51.024;13.828;2024-02-23T09:36:50;13.80;53.20
9919;DHT22;4998;51.024;13.828;2024-02-23T09:39:19;13.80;52.90
9919;DHT22;4998;51.024;13.828;2024-02-23T09:41:50;13.80;52.70
9919;DHT22;4998;51.024;13.828;2024-02-23T09:44:18;13.70;52.60
9919;DHT22;4998;51.024;13.828;2024-02-23T09:46:48;13.70;52.60
9919;DHT22;4998;51.024;13.828;2024-02-23T09:49:15;13.70;52.50
9919;DHT22;4998;51.024;13.828;2024-02-23T09:51:43;13.80;52.80
9919;DHT22;4998;51.024;13.828;2024-02-23T09:54:10;13.70;52.80
9919;DHT22;4998;51.024;13.828;2024-02-23T09:56:39;13.80;52.90
9919;DHT22;4998;51.024;13.828;2024-02-23T09:59:07;13.70;52.70
9919;DHT22;4998;51.024;13.828;2024-02-23T10:01:34;13.80;53.00
9919;DHT22;4998;51.024;13.828;2024-02-23T10:04:02;13.80;53.20
9919;DHT22;4998;51.024;13.828;2024-02-23T10:06:30;13.90;53.40
9919;DHT22;4998;51.024;13.828;2024-02-23T10:08:57;13.90;53.30
9919;DHT22;4998;51.024;13.828;2024-02-23T10:11:24;14.00;53.30
9919;DHT22;4998;51.024;13.828;2024-02-23T10:13:53;14.10;53.20
9919;DHT22;4998;51.024;13.828;2024-02-23T10:16:21;14.20;53.10
9919;DHT22;4998;51.024;13.828;2024-02-23T10:18:48;14.40;53.10
9919;DHT22;4998;51.024;13.828;2024-02-23T10:21:16;14.40;52.50
9919;DHT22;4998;51.024;13.828;2024-02-23T10:23:44;14.50;52.40
9919;DHT22;4998;51.024;13.828;2024-02-23T10:26:11;14.50;52.30
9919;DHT22;4998;51.024;13.828;2024-02-23T10:28:39;14.60;52.30
9919;DHT22;4998;51.024;13.828;2024-02-23T10:31:07;14.60;52.30
9919;DHT22;4998;51.024;13.828;2024-02-23T10:33:35;14.70;52.20
9919;DHT22;4998;51.024;13.828;2024-02-23T10:36:05;14.70;52.00
9919;DHT22;4998;51.024;13.828;2024-02-23T10:38:35;14.70;51.80
9919;DHT22;4998;51.024;13.828;2024-02-23T10:41:05;14.80;51.80
9919;DHT22;4998;51.024;13.828;2024-02-23T10:43:39;14.80;51.80
9919;DHT22;4998;51.024;13.828;2024-02-23T10:46:10;14.80;51.60
9919;DHT22;4998;51.024;13.828;2024-02-23T10:48:39;14.90;51.50
9919;DHT22;4998;51.024;13.828;2024-02-23T10:51:08;14.90;51.50
9919;DHT22;4998;51.024;13.828;2024-02-23T10:53:36;15.00;51.30
9919;DHT22;4998;51.024;13.828;2024-02-23T10:56:04;15.00;50.90
9919;DHT22;4998;51.024;13.828;2024-02-23T10:58:32;15.00;50.20
9919;DHT22;4998;51.024;13.828;2024-02-23T11:01:00;15.00;50.20
9919;DHT22;4998;51.024;13.828;2024-02-23T11:03:30;14.90;50.30
9919;DHT22;4998;51.024;13.828;2024-02-23T11:05:59;14.90;50.30
9919;DHT22;4998;51.024;13.828;2024-02-23T11:08:28;14.90;50.40
9919;DHT22;4998;51.024;13.828;2024-02-23T11:10:55;14.90;50.20
9919;DHT22;4998;51.024;13.828;2024-02-23T11:13:30;14.90;50.20
9919;DHT22;4998;51.024;13.828;2024-02-23T11:16:01;14.90;49.90
9919;DHT22;4998;51.024;13.828;2024-02-23T11:18:30;14.90;49.80
9919;DHT22;4998;51.024;13.828;2024-02-23T11:21:00;14.90;49.60
9919;DHT22;4998;51.024;13.828;2024-02-23T11:23:39;14.90;49.70
9919;DHT22;4998;51.024;13.828;2024-02-23T11:26:07;14.90;49.40
9919;DHT22;4998;51.024;13.828;2024-02-23T11:28:42;14.90;49.70
9919;DHT22;4998;51.024;13.828;2024-02-23T11:31:13;14.90;49.40
9919;DHT22;4998;51.024;13.828;2024-02-23T11:33:47;14.90;49.00
9919;DHT22;4998;51.024;13.828;2024-02-23T11:36:22;14.90;48.80
9919;DHT22;4998;51.024;13.828;2024-02-23T11:38:54;14.80;48.20
9919;DHT22;4998;51.024;13.828;2024-02-23T11:41:22;14.80;48.30
9919;DHT22;4998;51.024;13.828;2024-02-23T11:43:50;14.80;47.90
9919;DHT22;4998;51.024;13.828;2024-02-23T11:46:17;14.70;48.00
9919;DHT22;4998;51.024;13.828;2024-02-23T11:48:46;14.70;47.90
9919;DHT22;4998;51.024;13.828;2024-02-23T11:51:19;14.70;47.80
9919;DHT22;4998;51.024;13.828;2024-02-23T11:53:47;14.60;47.90
9919;DHT22;4998;51.024;13.828;2024-02-23T11:56:14;14.60;48.10
9919;DHT22;4998;51.024;13.828;2024-02-23T11:58:42;14.60;48.40
9919;DHT22;4998;51.024;13.828;2024-02-23T12:01:09;14.60;48.40
9919;DHT22;4998;51.024;13.828;2024-02-23T12:03:36;14.70;48.40
9919;DHT22;4998;51.024;13.828;2024-02-23T12:06:07;14.70;48.30
9919;DHT22;4998;51.024;13.828;2024-02-23T12:08:35;14.70;48.20
9919;DHT22;4998;51.024;13.828;2024-02-23T12:11:05;14.60;48.20
9919;DHT22;4998;51.024;13.828;2024-02-23T12:13:34;14.70;48.30
9919;DHT22;4998;51.024;13.828;2024-02-23T12:16:01;14.70;48.40
9919;DHT22;4998;51.024;13.828;2024-02-23T12:18:29;14.70;48.00
9919;DHT22;4998;51.024;13.828;2024-02-23T12:20:59;14.70;48.00
9919;DHT22;4998;51.024;13.828;2024-02-23T12:23:38;14.70;48.10
9919;DHT22;4998;51.024;13.828;2024-02-23T12:26:05;14.80;48.30
9919;DHT22;4998;51.024;13.828;2024-02-23T12:28:32;14.80;48.70
9919;DHT22;4998;51.024;13.828;2024-02-23T12:31:00;14.90;48.70
9919;DHT22;4998;51.024;13.828;2024-02-23T12:33:28;15.00;48.60
9919;DHT22;4998;51.024;13.828;2024-02-23T12:35:56;15.00;48.00
9919;DHT22;4998;51.024;13.828;2024-02-23T12:38:24;15.00;47.70
9919;DHT22;4998;51.024;13.828;2024-02-23T12:40:53;15.10;47.90
9919;DHT22;4998;51.024;13.828;2024-02-23T12:43:20;15.10;47.70
9919;DHT22;4998;51.024;13.828;2024-02-23T12:45:49;15.10;47.20
9919;DHT22;4998;51.024;13.828;2024-02-23T12:48:17;15.10;47.20
9919;DHT22;4998;51.024;13.828;2024-02-23T12:50:44;15.20;47.20
9919;DHT22;4998;51.024;13.828;2024-02-23T12:53:30;15.10;46.80
9919;DHT22;4998;51.024;13.828;2024-02-23T12:56:01;15.10;46.50
9919;DHT22;4998;51.024;13.828;2024-02-23T12:58:28;15.10;46.40
9919;DHT22;4998;51.024;13.828;2024-02-23T13:00:56;15.10;46.50
9919;DHT22;4998;51.024;13.828;2024-02-23T13:03:24;15.00;46.80
9919;DHT22;4998;51.024;13.828;2024-02-23T13:05:52;15.00;46.10
9919;DHT22;4998;51.024;13.828;2024-02-23T13:08:20;15.00;46.20
9919;DHT22;4998;51.024;13.828;2024-02-23T13:10:47;14.90;46.20
9919;DHT22;4998;51.024;13.828;2024-02-23T13:13:16;14.90;46.60
9919;DHT22;4998;51.024;13.828;2024-02-23T13:15:43;14.90;46.50
9919;DHT22;4998;51.024;13.828;2024-02-23T13:18:10;14.90;47.00
9919;DHT22;4998;51.024;13.828;2024-02-23T13:20:37;14.90;46.80
9919;DHT22;4998;51.024;13.828;2024-02-23T13:23:04;15.00;47.10
9919;DHT22;4998;51.024;13.828;2024-02-23T13:25:34;15.00;47.00
9919;DHT22;4998;51.024;13.828;2024-02-23T13:28:01;15.10;46.90
9919;DHT22;4998;51.024;13.828;2024-02-23T13:30:29;15.20;47.00
9919;DHT22;4998;51.024;13.828;2024-02-23T13:32:57;15.20;46.90
9919;DHT22;4998;51.024;13.828;2024-02-23T13:35:24;15.30;47.00
9919;DHT22;4998;51.024;13.828;2024-02-23T13:37:51;15.40;47.00
9919;DHT22;4998;51.024;13.828;2024-02-23T13:40:18;15.40;47.00
9919;DHT22;4998;51.024;13.828;2024-02-23T13:42:46;15.50;47.00
9919;DHT22;4998;51.024;13.828;2024-02-23T13:45:15;15.50;47.00
9919;DHT22;4998;51.024;13.828;2024-02-23T13:47:57;15.60;47.20
9919;DHT22;4998;51.024;13.828;2024-02-23T13:50:25;15.60;47.30
9919;DHT22;4998;51.024;13.828;2024-02-23T13:52:52;15.70;47.60
9919;DHT22;4998;51.024;13.828;2024-02-23T13:55:19;15.90;47.80
9919;DHT22;4998;51.024;13.828;2024-02-23T13:57:47;15.80;47.60
9919;DHT22;4998;51.024;13.828;2024-02-23T14:00:15;15.80;47.50
9919;DHT22;4998;51.024;13.828;2024-02-23T14:02:44;15.80;47.20
9919;DHT22;4998;51.024;13.828;2024-02-23T14:05:12;15.80;47.20
9919;DHT22;4998;51.024;13.828;2024-02-23T14:07:39;15.80;47.20
9919;DHT22;4998;51.024;13.828;2024-02-23T14:10:07;15.80;47.10
9919;DHT22;4998;51.024;13.828;2024-02-23T14:12:34;15.80;47.10
9919;DHT22;4998;51.024;13.828;2024-02-23T14:15:02;15.80;47.20
9919;DHT22;4998;51.024;13.828;2024-02-23T14:17:30;15.80;47.20
9919;DHT22;4998;51.024;13.828;2024-02-23T14:19:58;15.80;47.20
9919;DHT22;4998;51.024;13.828;2024-02-23T14:22:26;15.80;46.90
9919;DHT22;4998;51.024;13.828;2024-02-23T14:24:53;15.80;46.90
9919;DHT22;4998;51.024;13.828;2024-02-23T14:27:20;15.80;46.80
9919;DHT22;4998;51.024;13.828;2024-02-23T14:29:47;15.70;46.60
9919;DHT22;4998;51.024;13.828;2024-02-23T14:32:17;15.70;46.60
9919;DHT22;4998;51.024;13.828;2024-02-23T14:34:44;15.70;46.50
9919;DHT22;4998;51.024;13.828;2024-02-23T14:37:12;15.70;46.50
9919;DHT22;4998;51.024;13.828;2024-02-23T14:39:40;15.60;46.30
9919;DHT22;4998;51.024;13.828;2024-02-23T14:42:07;15.70;46.50
9919;DHT22;4998;51.024;13.828;2024-02-23T14:44:35;15.60;46.40
9919;DHT22;4998;51.024;13.828;2024-02-23T14:47:02;15.60;46.40
9919;DHT22;4998;51.024;13.828;2024-02-23T14:49:31;15.60;46.40
9919;DHT22;4998;51.024;13.828;2024-02-23T14:51:58;15.50;46.40
9919;DHT22;4998;51.024;13.828;2024-02-23T14:54:26;15.50;46.40
9919;DHT22;4998;51.024;13.828;2024-02-23T14:56:55;15.50;46.20
9919;DHT22;4998;51.024;13.828;2024-02-23T14:59:22;15.50;46.30
9919;DHT22;4998;51.024;13.828;2024-02-23T15:01:49;15.50;46.30
9919;DHT22;4998;51.024;13.828;2024-02-23T15:04:16;15.50;46.40
9919;DHT22;4998;51.024;13.828;2024-02-23T15:06:43;15.50;46.50
9919;DHT22;4998;51.024;13.828;2024-02-23T15:09:10;15.40;46.40
9919;DHT22;4998;51.024;13.828;2024-02-23T15:11:39;15.40;46.40
9919;DHT22;4998;51.024;13.828;2024-02-23T15:14:06;15.40;46.50
9919;DHT22;4998;51.024;13.828;2024-02-23T15:16:33;15.30;46.40
9919;DHT22;4998;51.024;13.828;2024-02-23T15:19:02;15.30;46.50
9919;DHT22;4998;51.024;13.828;2024-02-23T15:21:29;15.30;46.50
9919;DHT22;4998;51.024;13.828;2024-02-23T15:23:56;15.30;46.60
9919;DHT22;4998;51.024;13.828;2024-02-23T15:26:23;15.20;46.50
9919;DHT22;4998;51.024;13.828;2024-02-23T15:28:52;15.20;46.70
9919;DHT22;4998;51.024;13.828;2024-02-23T15:31:19;15.10;46.60
9919;DHT22;4998;51.024;13.828;2024-02-23T15:33:47;15.10;46.60
9919;DHT22;4998;51.024;13.828;2024-02-23T15:36:14;15.10;46.70
9919;DHT22;4998;51.024;13.828;2024-02-23T15:38:41;15.00;46.60
9919;DHT22;4998;51.024;13.828;2024-02-23T15:41:08;15.00;46.60
9919;DHT22;4998;51.024;13.828;2024-02-23T15:43:36;15.00;46.70
9919;DHT22;4998;51.024;13.828;2024-02-23T15:46:04;15.00;46.80
9919;DHT22;4998;51.024;13.828;2024-02-23T15:48:31;14.90;46.70